Latest Weather Observations for Kalgoorlie-Boulder

IDW60801

Issued at 11:02 am WST Saturday 1 August 2015 (issued every 30 minutes, with the page automatically refreshed every 10 minutes)

About weather observations | Map of weather stations | Latest weather observations for WA | Other Formats
Station Details ID: 012038 Name: KALGOORLIE-BOULDER AIRPORT Lat: -30.78 Lon: 121.45 Height: 365.3 m
Data from the previous 72 hours. | See also: Recent months at Kalgoorlie-Boulder
Date/Time
WST
Temp
°C
App
Temp
°C
Dew
Point
Rel
Hum
%
Delta-T
°C
Wind Press
QNH
hPa
Press
MSL
hPa
Rain
since 9 am
mm
Dir
 
Spd
km/h
Gust
km/h
Spd
kts
Gust
kts
01/11:00am 11.9 6.5 10.8 93 0.6 SE 30 39 16 21 1019.8 - 0.2
01/10:44am 11.6 6.6 10.8 95 0.4 SE 28 48 15 26 1019.6 - 0.2
01/10:30am 11.6 7.4 11.0 96 0.3 SE 24 35 13 19 1019.4 - 0.2
01/10:00am 11.5 7.6 10.9 96 0.3 SSE 22 32 12 17 1019.1 - 0.2
01/09:50am 11.5 6.9 10.9 96 0.3 SE 26 41 14 22 1019.0 - 0.2
01/09:30am 12.5 9.9 11.9 96 0.3 SE 17 20 9 11 1018.9 - 0.2
01/09:04am 12.2 10.3 11.8 97 0.2 ESE 13 17 7 9 1018.4 - 0.0
01/09:00am 12.1 10.5 11.7 97 0.2 ESE 11 13 6 7 1018.4 1018.3 35.2
01/08:30am 11.8 10.9 11.4 97 0.2 ESE 7 11 4 6 1018.1 - 33.4
01/08:20am 11.7 10.5 11.5 99 0.1 SE 9 15 5 8 1017.9 - 32.4
01/08:00am 11.7 8.9 11.3 97 0.2 SE 17 19 9 10 1017.2 - 31.2
01/07:30am 11.7 9.6 11.3 97 0.2 SE 13 17 7 9 1016.9 - 28.6
01/07:00am 11.8 9.8 11.4 97 0.2 ESE 13 17 7 9 1016.3 - 27.0
01/06:54am 11.9 10.2 11.3 96 0.3 E 11 15 6 8 1016.2 - 26.4
01/06:45am 11.9 10.2 11.1 95 0.4 E 11 15 6 8 1016.1 - 26.2
01/06:30am 11.9 10.2 11.1 95 0.4 ENE 11 15 6 8 1015.9 - 26.0
01/06:00am 11.5 10.5 11.1 97 0.2 E 7 9 4 5 1015.6 1015.5 25.6
01/05:51am 11.5 10.5 11.1 97 0.2 ESE 7 11 4 6 1015.5 - 25.6
01/05:30am 11.4 10.4 11.0 97 0.2 SSE 7 9 4 5 1015.4 - 25.6
01/05:17am 11.4 10.3 10.8 96 0.3 SSW 7 9 4 5 1015.5 - 25.6
01/05:00am 11.4 10.4 11.0 97 0.2 SW 7 9 4 5 1015.3 - 25.6
01/04:30am 11.3 9.9 10.9 97 0.2 SSW 9 13 5 7 1015.1 - 25.6
01/04:00am 11.1 9.6 10.7 97 0.2 SSW 9 11 5 6 1015.0 - 25.6
01/03:30am 11.1 9.3 10.7 97 0.2 SSW 11 15 6 8 1014.9 - 25.6
01/03:00am 10.8 9.3 10.4 97 0.2 SSW 9 11 5 6 1014.8 1014.7 25.6
01/02:53am 10.2 9.5 10.0 99 0.1 N 4 9 2 5 1014.7 - 25.6
01/02:30am 11.0 10.5 10.6 97 0.2 NNE 4 7 2 4 1014.5 - 25.6
01/02:00am 11.3 9.8 10.5 95 0.4 NNE 9 11 5 6 1014.4 - 25.6
01/01:30am 11.7 9.5 10.9 95 0.4 NNE 13 19 7 10 1014.1 - 25.6
01/01:00am 12.0 10.5 10.7 92 0.7 NE 9 15 5 8 1014.0 - 25.6
01/12:30am 12.1 9.6 11.2 94 0.5 NE 15 20 8 11 1013.8 - 25.6
01/12:00am 12.3 9.1 11.4 94 0.5 ENE 19 28 10 15 1013.6 1013.7 25.6
 
Date/Time
WST
Temp
°C
App
Temp
°C
Dew
Point
Rel
Hum
%
Delta-T
°C
Wind Press
QNH
hPa
Press
MSL
hPa
Rain
since 9 am
mm
Dir
 
Spd
km/h
Gust
km/h
Spd
kts
Gust
kts
31/11:58pm 12.3 9.5 11.4 94 0.5 ENE 17 28 9 15 1013.7 - 25.6
31/11:30pm 12.5 11.6 11.2 92 0.7 ENE 7 15 4 8 1015.8 - 25.0
31/11:00pm 12.4 10.0 11.5 94 0.5 NNE 15 22 8 12 1015.4 - 25.0
31/10:30pm 12.5 9.8 11.6 94 0.5 ENE 17 24 9 13 1015.0 - 25.0
31/10:00pm 12.4 10.6 12.0 97 0.2 ENE 13 17 7 9 1015.8 - 25.0
31/09:30pm 12.5 11.8 12.1 97 0.2 S 7 13 4 7 1017.3 - 24.6
31/09:00pm 12.6 12.0 12.2 97 0.2 SSE 7 13 4 7 1016.9 1017.0 23.6
31/08:30pm 12.6 10.4 12.2 97 0.2 ESE 15 19 8 10 1016.5 - 22.6
31/08:00pm 12.5 10.7 12.1 97 0.2 SSE 13 17 7 9 1016.7 - 22.0
31/07:40pm 12.6 10.0 12.0 96 0.3 S 17 22 9 12 1016.9 - 20.6
31/07:30pm 12.6 9.4 12.0 96 0.3 SSW 20 28 11 15 1016.9 - 20.4
31/07:10pm 12.6 9.5 12.2 97 0.2 SSW 20 32 11 17 1015.4 - 18.4
31/07:00pm 12.8 8.6 12.3 97 0.3 S 26 35 14 19 1014.8 - 16.2
31/06:56pm 13.0 10.6 12.5 97 0.3 SSW 17 28 9 15 1015.1 - 15.4
31/06:52pm 13.1 11.1 12.6 97 0.3 SW 15 20 8 11 1015.8 - 14.2
31/06:30pm 13.1 10.1 12.6 97 0.3 S 20 26 11 14 1014.4 - 13.0
31/06:21pm 13.1 10.3 12.6 97 0.3 SE 19 26 10 14 1014.5 - 12.8
31/06:01pm 13.2 10.1 12.3 94 0.5 SE 20 28 11 15 1014.5 - 12.2
31/06:00pm 13.2 10.1 12.3 94 0.5 SE 20 28 11 15 1014.5 1014.6 11.8
31/05:56pm 13.2 9.7 12.3 94 0.5 ESE 22 35 12 19 1015.2 - 11.0
31/05:52pm 13.2 8.7 12.5 95 0.4 ESE 28 39 15 21 1014.7 - 10.6
31/05:30pm 13.4 10.6 12.5 94 0.5 SE 19 24 10 13 1014.9 - 10.4
31/05:22pm 13.5 12.2 12.6 94 0.5 NNW 11 20 6 11 1015.6 - 9.2
31/05:18pm 13.8 12.4 12.3 91 0.8 N 11 20 6 11 1016.2 - 3.6
31/05:12pm 13.8 9.6 12.4 91 0.8 SE 26 44 14 24 1014.8 - 0.0
31/05:00pm 13.9 9.7 12.3 90 0.9 SE 26 35 14 19 1012.7 - 0.0
31/04:30pm 14.1 10.7 12.5 90 0.9 SE 22 30 12 16 1013.5 - 0.0
31/04:00pm 14.4 11.0 12.4 88 1.1 SSE 22 35 12 19 1013.6 - 0.0
31/03:30pm 14.7 11.7 12.4 86 1.3 SSE 20 30 11 16 1014.3 - 0.0
31/03:00pm 16.1 11.3 11.6 74 2.5 SSE 28 37 15 20 1014.3 1014.4 0.0
31/02:30pm 17.2 14.2 12.6 74 2.6 SSE 20 28 11 15 1014.0 - 0.0
31/02:00pm 17.7 14.6 13.5 76 2.4 SE 22 30 12 16 1013.5 - 0.0
31/01:30pm 17.9 15.1 13.2 74 2.7 SE 20 28 11 15 1013.5 - 0.0
31/01:00pm 18.3 16.5 13.4 73 2.8 SE 15 22 8 12 1014.1 - 0.0
31/12:30pm 18.1 16.6 13.2 73 2.8 ESE 13 19 7 10 1014.5 - 0.0
31/12:00pm 17.9 16.1 13.2 74 2.7 ESE 15 19 8 10 1014.9 1015.0 0.0
31/11:30am 17.5 17.0 13.7 78 2.2 ESE 9 15 5 8 1015.4 - 0.0
31/11:00am 17.0 16.3 13.1 78 2.2 ENE 9 13 5 7 1015.9 - 0.0
31/10:30am 16.5 15.7 13.0 80 2.0 E 9 13 5 7 1016.4 - 0.0
31/10:00am 16.4 15.3 13.0 80 1.9 E 11 15 6 8 1016.8 - 0.0
31/09:30am 15.1 14.0 13.0 87 1.2 E 11 17 6 9 1016.7 - 0.0
31/09:00am 14.2 12.7 13.1 93 0.6 ESE 13 17 7 9 1017.0 1017.1 5.2
31/08:30am 13.9 12.4 13.0 94 0.5 E 13 17 7 9 1017.1 - 5.2
31/08:00am 13.6 12.5 13.1 97 0.3 ESE 11 15 6 8 1017.4 - 5.2
31/07:30am 13.4 12.6 12.9 97 0.3 ESE 9 11 5 6 1017.8 - 5.2
31/07:00am 13.3 12.1 12.8 97 0.3 ESE 11 13 6 7 1017.7 - 5.2
31/06:30am 13.3 12.5 12.8 97 0.3 S 9 11 5 6 1018.3 - 5.2
31/06:27am 13.3 12.5 12.8 97 0.3 SSW 9 11 5 6 1018.4 - 5.2
31/06:00am 13.3 10.4 12.8 97 0.3 SW 20 28 11 15 1019.2 1019.3 5.2
31/05:51am 13.3 10.4 12.8 97 0.3 SW 20 32 11 17 1018.5 - 5.2
31/05:30am 13.3 12.5 12.8 97 0.3 N 9 13 5 7 1016.9 - 5.2
31/05:00am 13.3 12.5 12.9 97 0.2 NNE 9 13 5 7 1017.0 - 5.2
31/04:30am 13.4 13.0 12.9 97 0.3 NNE 7 9 4 5 1017.6 - 4.6
31/04:00am 13.5 14.4 12.8 95 0.4 CALM 0 7 0 4 1018.2 - 4.6
31/03:43am 13.5 13.7 13.0 97 0.3 SSE 4 11 2 6 1018.7 - 4.6
31/03:30am 13.6 12.8 12.9 95 0.4 WSW 9 17 5 9 1019.0 - 4.4
31/03:28am 13.6 12.4 12.9 95 0.4 WSW 11 17 6 9 1019.2 - 4.4
31/03:00am 13.7 13.5 13.0 96 0.4 SE 6 11 3 6 1019.3 1019.4 3.6
31/02:30am 13.8 13.0 12.9 94 0.5 W 9 13 5 7 1020.1 - 3.2
31/02:00am 14.0 13.2 12.9 93 0.6 WSW 9 13 5 7 1020.3 - 2.8
31/01:30am 14.1 13.3 13.0 93 0.6 SW 9 13 5 7 1020.5 - 2.4
31/01:00am 14.5 12.2 12.9 90 0.9 WSW 17 22 9 12 1020.9 - 1.8
31/12:30am 14.9 13.8 14.2 96 0.4 SW 13 19 7 10 1020.6 - 1.6
31/12:00am 14.9 16.3 14.4 97 0.3 CALM 0 6 0 3 1020.0 1020.2 1.4
 
Date/Time
WST
Temp
°C
App
Temp
°C
Dew
Point
Rel
Hum
%
Delta-T
°C
Wind Press
QNH
hPa
Press
MSL
hPa
Rain
since 9 am
mm
Dir
 
Spd
km/h
Gust
km/h
Spd
kts
Gust
kts
30/11:30pm 14.8 14.9 14.5 98 0.2 S 7 9 4 5 1020.2 - 1.4
30/11:05pm 15.0 16.1 14.5 97 0.3 E 2 7 1 4 1020.3 - 1.4
30/11:00pm 15.1 16.6 14.6 97 0.3 CALM 0 0 0 0 1020.3 - 1.4
30/10:45pm 14.9 16.4 14.6 98 0.2 CALM 0 0 0 0 1020.3 - 1.4
30/10:30pm 15.2 16.6 14.5 96 0.4 CALM 0 0 0 0 1020.7 - 1.4
30/10:00pm 15.5 16.7 14.8 96 0.4 ESE 2 6 1 3 1021.0 - 1.4
30/09:41pm 15.5 17.1 15.0 97 0.3 CALM 0 0 0 0 1021.4 - 1.4
30/09:30pm 15.6 16.5 15.1 97 0.3 SSE 4 7 2 4 1021.6 - 1.4
30/09:29pm 15.6 16.5 15.1 97 0.3 SSE 4 7 2 4 1021.6 - 1.4
30/09:27pm 15.6 16.1 15.1 97 0.3 SSE 6 7 3 4 1021.6 - 1.4
30/09:12pm 15.8 17.5 15.1 96 0.4 CALM 0 7 0 4 1021.8 - 1.4
30/09:00pm 15.9 17.6 15.2 96 0.4 CALM 0 0 0 0 1021.9 1022.1 1.4
30/08:30pm 15.9 16.8 15.0 94 0.5 WSW 4 7 2 4 1022.4 - 1.4
30/08:00pm 16.0 17.3 15.1 94 0.5 NNW 2 6 1 3 1022.3 - 1.4
30/07:30pm 16.1 16.4 15.1 94 0.6 NNW 7 9 4 5 1022.6 - 1.4
30/07:00pm 16.4 16.1 15.4 94 0.6 SW 11 13 6 7 1022.8 - 1.4
30/06:30pm 16.6 17.3 15.6 94 0.6 SSW 6 6 3 3 1022.5 - 1.0
30/06:00pm 17.0 16.8 14.8 87 1.3 SSW 9 9 5 5 1022.1 1022.3 1.0
30/05:30pm 17.2 17.7 15.5 90 1.0 N 7 9 4 5 1021.7 - 0.8
30/05:00pm 17.2 17.8 15.7 91 0.9 N 7 9 4 5 1021.5 - 0.8
30/04:30pm 18.7 18.5 13.5 72 3.0 W 7 11 4 6 1021.8 - 0.2
30/04:00pm 20.2 19.3 11.4 57 4.9 WNW 7 9 4 5 1021.3 - 0.0
30/03:30pm 20.3 19.0 11.1 55 5.1 N 9 11 5 6 1021.1 - 0.0
30/03:00pm 20.4 19.4 11.1 55 5.2 N 7 11 4 6 1021.0 1021.1 0.0
30/02:30pm 20.6 20.6 11.1 54 5.3 NW 2 11 1 6 1021.2 - 0.0
30/02:00pm 20.7 19.5 11.6 56 5.1 N 9 17 5 9 1021.6 - 0.0
30/01:30pm 20.6 19.3 11.3 55 5.2 NNW 9 17 5 9 1021.7 - 0.0
30/01:00pm 20.0 17.9 11.2 57 4.9 N 13 17 7 9 1022.2 - 0.0
30/12:30pm 20.9 19.3 11.5 55 5.3 N 11 17 6 9 1022.4 - 0.0
30/12:00pm 20.3 19.7 11.6 57 4.9 S 6 11 3 6 1022.8 1023.0 0.0
30/11:30am 19.1 17.4 11.1 59 4.4 NE 11 17 6 9 1022.9 - 0.0
30/11:00am 18.3 16.6 11.2 63 3.9 NE 11 17 6 9 1023.2 - 0.0
30/10:30am 18.5 16.2 11.9 65 3.7 ENE 15 22 8 12 1023.5 - 0.0
30/10:00am 17.6 15.4 12.2 70 3.0 E 15 20 8 11 1024.1 - 0.0
30/09:30am 16.8 15.1 12.5 76 2.4 ENE 13 17 7 9 1024.4 - 0.0
30/09:00am 16.3 15.5 12.9 80 1.9 NE 9 11 5 6 1024.3 1024.5 0.2
30/08:30am 14.3 15.2 12.9 91 0.8 CALM 0 2 0 1 1024.3 - 0.2
30/08:00am 13.6 14.5 12.9 95 0.4 CALM 0 9 0 5 1023.5 - 0.2
30/07:30am 13.1 13.9 12.6 97 0.3 CALM 0 0 0 0 1023.6 - 0.2
30/07:00am 11.5 11.9 11.1 97 0.2 CALM 0 0 0 0 1023.0 - 0.2
30/06:30am 11.4 11.7 11.0 97 0.2 CALM 0 - 0 - 1022.4 - 0.2
30/06:00am 12.2 12.8 11.8 97 0.2 CALM 0 - 0 - 1021.7 1021.8 0.2
30/05:30am 12.5 13.2 12.1 97 0.2 CALM 0 0 0 0 1021.5 - 0.2
30/05:00am 12.6 13.2 12.0 96 0.3 CALM 0 0 0 0 1021.6 - 0.2
30/04:30am 13.0 13.7 12.3 95 0.4 CALM 0 0 0 0 1021.5 - 0.2
30/04:00am 13.2 14.0 12.5 95 0.4 CALM 0 0 0 0 1021.3 - 0.2
30/03:30am 13.8 14.3 12.9 94 0.5 W 2 7 1 4 1021.4 - 0.2
30/03:00am 14.0 13.2 12.9 93 0.6 WSW 9 11 5 6 1021.8 1022.0 0.2
30/02:30am 14.1 13.7 13.0 93 0.6 WSW 7 9 4 5 1021.3 - 0.2
30/02:00am 14.3 14.2 13.2 93 0.6 SW 6 7 3 4 1021.7 - 0.2
30/01:30am 14.2 14.0 12.9 92 0.7 WSW 6 7 3 4 1021.9 - 0.2
30/01:00am 14.2 13.8 13.1 93 0.6 WSW 7 9 4 5 1021.7 - 0.2
30/12:30am 15.0 16.1 13.4 90 0.9 CALM 0 0 0 0 1021.7 - 0.2
30/12:00am 15.6 15.5 13.3 86 1.3 WNW 6 7 3 4 1021.8 1022.0 0.2
 
Date/Time
WST
Temp
°C
App
Temp
°C
Dew
Point
Rel
Hum
%
Delta-T
°C
Wind Press
QNH
hPa
Press
MSL
hPa
Rain
since 9 am
mm
Dir
 
Spd
km/h
Gust
km/h
Spd
kts
Gust
kts
29/11:30pm 15.9 15.8 13.4 85 1.4 SW 6 9 3 5 1021.8 - 0.2
29/11:00pm 16.3 15.7 13.5 83 1.6 SW 9 13 5 7 1021.7 - 0.2
29/10:30pm 17.2 16.4 12.8 75 2.5 SW 9 13 5 7 1021.8 - 0.2
29/10:00pm 17.2 16.2 12.4 73 2.7 W 9 11 5 6 1021.8 - 0.2
29/09:30pm 17.1 17.1 12.5 74 2.6 WSW 4 9 2 5 1021.7 - 0.2
29/09:00pm 17.7 16.7 12.4 71 3.0 WSW 9 11 5 6 1021.1 1021.2 0.2
29/08:30pm 18.1 18.5 12.4 69 3.2 SW 2 9 1 5 1020.5 - 0.2
29/08:00pm 18.6 17.1 12.0 65 3.7 SSW 11 15 6 8 1020.5 - 0.2
29/07:30pm 18.9 16.6 11.7 63 4.0 SSW 15 19 8 10 1020.1 - 0.2
29/07:00pm 19.3 18.7 12.2 63 4.0 S 7 9 4 5 1020.0 - 0.2
29/06:30pm 20.5 19.1 12.2 59 4.7 W 11 17 6 9 1019.6 - 0.2
29/06:00pm 21.2 18.9 11.9 55 5.3 W 15 20 8 11 1019.2 1019.3 0.2
29/05:30pm 21.6 18.9 11.7 53 5.6 WSW 17 24 9 13 1019.0 - 0.2
29/05:00pm 22.2 19.1 11.6 51 6.0 W 19 24 10 13 1018.6 - 0.2
29/04:30pm 22.9 19.1 11.0 47 6.7 W 22 32 12 17 1018.3 - 0.2
29/04:00pm 22.8 20.3 12.2 51 6.1 NW 17 24 9 13 1017.9 - 0.2
29/03:30pm 23.2 20.4 11.4 47 6.7 NW 17 28 9 15 1017.8 - 0.2
29/03:00pm 23.9 20.2 10.3 42 7.6 NW 20 30 11 16 1017.7 1017.8 0.2
29/02:30pm 23.4 20.9 11.0 45 7.0 W 15 22 8 12 1017.7 - 0.2
29/02:00pm 23.1 19.9 11.1 46 6.8 W 19 28 10 15 1017.8 - 0.2
29/01:30pm 23.0 20.2 11.2 47 6.7 W 17 26 9 14 1017.9 - 0.2
29/01:00pm 23.1 20.0 11.5 48 6.6 W 19 26 10 14 1018.3 - 0.2
29/12:30pm 22.8 20.5 11.8 50 6.3 WNW 15 26 8 14 1018.5 - 0.2
29/12:00pm 21.8 18.5 11.6 52 5.8 WNW 20 26 11 14 1018.9 1019.0 0.2
29/11:30am 21.5 18.2 11.6 53 5.6 WNW 20 26 11 14 1019.3 - 0.2

Other Formats:

Comma delimited format used in spreadsheet applications
http://www.bom.gov.au/fwo/IDW60801/IDW60801.94637.axf

JavaScript Object Notation format (JSON) in row-major order
http://www.bom.gov.au/fwo/IDW60801/IDW60801.94637.json